Time;durP1;ratioP1;P1;durP2;ratioP2;P2;SDS_P1;SDS_P2;PMS_P1;PMS_P2;Temp;Humidity;BMP_temperature;BMP_pressure;BME280_temperature;BME280_humidity;BME280_pressure;Samples;Min_cycle;Max_cycle;Signal;HPM_P1;HPM_P2
2023/04/17 00:01:30;;;;;;;33.05;17.30;;;;;;;;;;6274834;28;20037;-56
2023/04/17 00:04:30;;;;;;;29.08;15.95;;;;;;;;;;6276900;28;20484;-56
2023/04/17 00:07:33;;;;;;;27.15;15.63;;;;;;;;;;6272716;28;20052;-56
2023/04/17 00:10:33;;;;;;;29.63;16.20;;;;;;;;;;6278225;28;20037;-59
2023/04/17 00:13:34;;;;;;;33.78;16.40;;;;;;;;;;6271238;28;20154;-53
2023/04/17 00:16:35;;;;;;;32.17;17.00;;;;;;;;;;6273632;28;20523;-54
2023/04/17 00:19:35;;;;;;;34.17;17.20;;;;;;;;;;6267668;28;20072;-56
2023/04/17 00:22:37;;;;;;;31.77;16.88;;;;;;;;;;6268290;28;20052;-54
2023/04/17 00:25:37;;;;;;;31.20;16.95;;;;;;;;;;6267122;28;20098;-52
2023/04/17 00:28:38;;;;;;;28.48;15.13;;;;;;;;;;6265828;28;20045;-57
2023/04/17 00:31:38;;;;;;;27.50;14.73;;;;;;;;;;6278555;28;20044;-54
2023/04/17 00:34:39;;;;;;;27.60;14.88;;;;;;;;;;6278426;28;20411;-55
2023/04/17 00:37:40;;;;;;;28.42;16.23;;;;;;;;;;6279188;28;20088;-55
2023/04/17 00:40:41;;;;;;;26.45;13.73;;;;;;;;;;6281322;28;20062;-54
2023/04/17 00:43:41;;;;;;;29.38;16.45;;;;;;;;;;6283785;28;20036;-51
2023/04/17 00:46:42;;;;;;;27.65;14.93;;;;;;;;;;6282416;28;20495;-51
2023/04/17 00:49:43;;;;;;;28.63;14.77;;;;;;;;;;6288958;28;20560;-51
2023/04/17 00:52:44;;;;;;;27.30;14.30;;;;;;;;;;6279353;28;20063;-52
2023/04/17 00:55:49;;;;;;;30.25;14.90;;;;;;;;;;6271960;28;20037;-50
2023/04/17 00:58:49;;;;;;;26.40;14.93;;;;;;;;;;6269546;28;20448;-50
2023/04/17 01:01:50;;;;;;;31.48;16.10;;;;;;;;;;6271932;28;20029;-50
2023/04/17 01:04:51;;;;;;;28.35;14.55;;;;;;;;;;6269768;28;20071;-53
2023/04/17 01:07:53;;;;;;;29.00;14.73;;;;;;;;;;6268246;28;20044;-49
2023/04/17 01:10:53;;;;;;;27.20;14.68;;;;;;;;;;6269710;28;20079;-53
2023/04/17 01:13:54;;;;;;;28.50;15.30;;;;;;;;;;6267532;28;20522;-53
2023/04/17 01:16:55;;;;;;;25.85;14.73;;;;;;;;;;6270421;28;20420;-52
2023/04/17 01:19:57;;;;;;;26.30;14.43;;;;;;;;;;6265574;28;20101;-54
2023/04/17 01:22:58;;;;;;;29.80;14.68;;;;;;;;;;6266275;28;20634;-52
2023/04/17 01:25:59;;;;;;;26.13;14.57;;;;;;;;;;6269376;28;20059;-51
2023/04/17 01:29:00;;;;;;;29.38;14.82;;;;;;;;;;6267453;28;20068;-50
2023/04/17 01:32:00;;;;;;;31.38;15.10;;;;;;;;;;6267263;28;20041;-57
2023/04/17 01:35:01;;;;;;;28.40;15.07;;;;;;;;;;6283335;28;20045;-49
2023/04/17 01:38:02;;;;;;;27.52;14.48;;;;;;;;;;6272090;28;20491;-56
2023/04/17 01:41:08;;;;;;;30.30;15.23;;;;;;;;;;6269204;28;20040;-57
2023/04/17 01:44:09;;;;;;;25.77;14.55;;;;;;;;;;6266829;28;20047;-53
2023/04/17 01:47:09;;;;;;;27.65;14.70;;;;;;;;;;6270481;28;20053;-50
2023/04/17 01:50:11;;;;;;;30.70;17.30;;;;;;;;;;6266970;28;20037;-54
2023/04/17 01:53:11;;;;;;;38.83;19.50;;;;;;;;;;6269836;28;20033;-53
2023/04/17 01:56:12;;;;;;;37.75;19.40;;;;;;;;;;6269528;28;20045;-52
2023/04/17 01:59:13;;;;;;;37.08;19.05;;;;;;;;;;6267461;28;20403;-53
2023/04/17 02:02:13;;;;;;;36.88;19.63;;;;;;;;;;6265227;28;20479;-52
2023/04/17 02:05:14;;;;;;;33.13;17.92;;;;;;;;;;6274695;28;20401;-51
2023/04/17 02:08:15;;;;;;;36.10;17.75;;;;;;;;;;6269440;28;20040;-53
2023/04/17 02:11:16;;;;;;;33.55;16.95;;;;;;;;;;6267748;28;20435;-55
2023/04/17 02:14:17;;;;;;;29.27;16.38;;;;;;;;;;6265449;28;20037;-50
2023/04/17 02:17:17;;;;;;;36.42;19.13;;;;;;;;;;6266174;28;20111;-52
2023/04/17 02:20:18;;;;;;;33.13;17.75;;;;;;;;;;6266702;28;20124;-52
2023/04/17 02:23:18;;;;;;;32.97;17.70;;;;;;;;;;6279931;28;20053;-53
2023/04/17 02:26:19;;;;;;;30.58;16.95;;;;;;;;;;6276370;28;20068;-51
2023/04/17 02:29:20;;;;;;;29.80;16.13;;;;;;;;;;6269155;28;20037;-53
2023/04/17 02:32:20;;;;;;;29.48;15.88;;;;;;;;;;6266695;28;21626;-52
2023/04/17 02:35:23;;;;;;;32.90;17.35;;;;;;;;;;6267544;28;20045;-52
2023/04/17 02:38:24;;;;;;;33.38;17.77;;;;;;;;;;6265357;28;20071;-52
2023/04/17 02:41:24;;;;;;;28.92;16.10;;;;;;;;;;6266007;28;20049;-50
2023/04/17 02:44:25;;;;;;;27.13;15.73;;;;;;;;;;6267231;28;20145;-49
2023/04/17 02:47:26;;;;;;;34.58;16.95;;;;;;;;;;6268584;28;20546;-53
2023/04/17 02:50:26;;;;;;;33.20;16.92;;;;;;;;;;6270928;28;20066;-54
2023/04/17 02:53:27;;;;;;;33.42;18.05;;;;;;;;;;6265888;28;20432;-57
2023/04/17 02:56:27;;;;;;;34.50;17.52;;;;;;;;;;6265803;28;20056;-52
2023/04/17 02:59:28;;;;;;;32.58;18.35;;;;;;;;;;6269173;28;20503;-52
2023/04/17 03:02:29;;;;;;;29.65;16.50;;;;;;;;;;6263663;28;20047;-51
2023/04/17 03:05:29;;;;;;;34.67;17.85;;;;;;;;;;6268490;28;20045;-52
2023/04/17 03:08:34;;;;;;;33.97;17.88;;;;;;;;;;6272377;28;20060;-49
2023/04/17 03:11:34;;;;;;;31.48;16.83;;;;;;;;;;6270878;28;21626;-51
2023/04/17 03:14:35;;;;;;;32.33;17.08;;;;;;;;;;6272816;28;20044;-54
2023/04/17 03:17:35;;;;;;;32.75;17.95;;;;;;;;;;6273681;28;20041;-53
2023/04/17 03:20:36;;;;;;;31.45;17.15;;;;;;;;;;6271104;28;20070;-51
2023/04/17 03:23:37;;;;;;;37.05;18.48;;;;;;;;;;6270798;28;20045;-51
2023/04/17 03:26:37;;;;;;;33.97;18.27;;;;;;;;;;6271666;28;20069;-51
2023/04/17 03:29:38;;;;;;;35.08;17.60;;;;;;;;;;6269391;28;20060;-49
2023/04/17 03:32:39;;;;;;;32.73;17.47;;;;;;;;;;6268741;28;20051;-51
2023/04/17 03:35:40;;;;;;;32.60;17.58;;;;;;;;;;6268749;28;20057;-49
2023/04/17 03:38:40;;;;;;;35.20;17.38;;;;;;;;;;6270157;28;20195;-52
2023/04/17 03:41:41;;;;;;;34.55;17.25;;;;;;;;;;6272111;28;20045;-52
2023/04/17 03:44:42;;;;;;;32.47;17.02;;;;;;;;;;6270742;28;20037;-50
2023/04/17 03:47:42;;;;;;;33.28;18.27;;;;;;;;;;6272261;28;21252;-50
2023/04/17 03:50:43;;;;;;;33.13;18.15;;;;;;;;;;6268938;28;20033;-50
2023/04/17 03:53:43;;;;;;;34.92;18.38;;;;;;;;;;6268516;28;20416;-52
2023/04/17 03:56:44;;;;;;;35.13;18.10;;;;;;;;;;6271390;28;20060;-51
2023/04/17 03:59:44;;;;;;;33.45;17.25;;;;;;;;;;6273479;28;20048;-50
2023/04/17 04:02:45;;;;;;;32.33;17.52;;;;;;;;;;6279345;28;20032;-50
2023/04/17 04:05:46;;;;;;;31.75;16.27;;;;;;;;;;6271404;28;20420;-50
2023/04/17 04:08:48;;;;;;;34.60;18.25;;;;;;;;;;6268917;28;20099;-56
2023/04/17 04:11:48;;;;;;;36.60;18.17;;;;;;;;;;6267077;28;20450;-51
2023/04/17 04:14:49;;;;;;;39.17;19.05;;;;;;;;;;6266911;28;21431;-51
2023/04/17 04:17:49;;;;;;;35.78;18.70;;;;;;;;;;6269417;28;20056;-49
2023/04/17 04:20:50;;;;;;;36.28;19.88;;;;;;;;;;6267003;28;20044;-56
2023/04/17 04:23:50;;;;;;;40.33;19.65;;;;;;;;;;6267450;28;20094;-52
2023/04/17 04:26:51;;;;;;;35.35;19.02;;;;;;;;;;6269004;28;20059;-52
2023/04/17 04:29:57;;;;;;;40.97;21.08;;;;;;;;;;6269587;28;20037;-53
2023/04/17 04:32:59;;;;;;;40.15;20.65;;;;;;;;;;6265902;28;20039;-51
2023/04/17 04:36:00;;;;;;;40.83;19.60;;;;;;;;;;6270358;28;20033;-54
2023/04/17 04:39:04;;;;;;;44.67;21.05;;;;;;;;;;6270150;28;20048;-55
2023/04/17 04:42:08;;;;;;;44.88;22.67;;;;;;;;;;6268197;28;20052;-48
2023/04/17 04:45:10;;;;;;;43.83;22.88;;;;;;;;;;6269658;28;20191;-57
2023/04/17 04:48:10;;;;;;;43.17;22.93;;;;;;;;;;6270241;28;20032;-53
2023/04/17 04:51:11;;;;;;;47.90;23.92;;;;;;;;;;6272662;28;20049;-67
2023/04/17 04:54:12;;;;;;;40.78;21.40;;;;;;;;;;6274426;28;20041;-52
2023/04/17 04:57:13;;;;;;;40.15;20.48;;;;;;;;;;6272954;28;20749;-52
2023/04/17 05:00:13;;;;;;;42.88;20.77;;;;;;;;;;6269041;28;20052;-55
2023/04/17 05:03:14;;;;;;;39.45;19.98;;;;;;;;;;6266948;28;20041;-54
2023/04/17 05:06:15;;;;;;;38.08;19.08;;;;;;;;;;6267130;28;20070;-52
2023/04/17 05:09:15;;;;;;;42.88;19.80;;;;;;;;;;6271096;28;20044;-52
2023/04/17 05:12:16;;;;;;;42.63;20.08;;;;;;;;;;6267831;28;20044;-51
2023/04/17 05:15:16;;;;;;;44.13;20.10;;;;;;;;;;6266212;28;20048;-52
2023/04/17 05:18:17;;;;;;;46.70;21.38;;;;;;;;;;6270590;28;20055;-55
2023/04/17 05:21:18;;;;;;;45.08;21.63;;;;;;;;;;6279874;28;20051;-53
2023/04/17 05:24:18;;;;;;;44.10;21.52;;;;;;;;;;6266569;28;20052;-50
2023/04/17 05:27:19;;;;;;;52.28;25.20;;;;;;;;;;6266321;28;20045;-54
2023/04/17 05:30:19;;;;;;;57.70;26.77;;;;;;;;;;6265362;28;20068;-51
2023/04/17 05:33:20;;;;;;;52.83;26.48;;;;;;;;;;6265567;28;20049;-56
2023/04/17 05:36:21;;;;;;;55.90;26.98;;;;;;;;;;6266433;28;20462;-58
2023/04/17 05:39:21;;;;;;;55.05;27.08;;;;;;;;;;6267705;28;20470;-56
2023/04/17 05:42:22;;;;;;;55.08;27.63;;;;;;;;;;6265512;28;20053;-52
2023/04/17 05:45:23;;;;;;;51.67;25.55;;;;;;;;;;6268391;28;20107;-52
2023/04/17 05:48:23;;;;;;;44.80;23.17;;;;;;;;;;6270422;28;20044;-50
2023/04/17 05:51:25;;;;;;;45.92;23.45;;;;;;;;;;6265116;28;20052;-53
2023/04/17 05:54:27;;;;;;;42.95;22.90;;;;;;;;;;6266520;28;20091;-53
2023/04/17 05:57:28;;;;;;;45.13;23.23;;;;;;;;;;6269712;28;20049;-59
2023/04/17 06:00:29;;;;;;;46.05;24.00;;;;;;;;;;6267662;28;20053;-51
2023/04/17 06:03:33;;;;;;;44.42;23.85;;;;;;;;;;6267880;28;20049;-55
2023/04/17 06:06:34;;;;;;;49.42;24.67;;;;;;;;;;6268127;28;20074;-55
2023/04/17 06:09:35;;;;;;;45.55;23.40;;;;;;;;;;6268064;28;20044;-51
2023/04/17 06:12:36;;;;;;;47.28;24.90;;;;;;;;;;6263484;28;20064;-54
2023/04/17 06:15:37;;;;;;;47.30;23.52;;;;;;;;;;6263823;28;20089;-51
2023/04/17 06:18:37;;;;;;;46.90;23.50;;;;;;;;;;6265394;28;20052;-53
2023/04/17 06:21:38;;;;;;;49.03;23.95;;;;;;;;;;6263295;28;20434;-51
2023/04/17 06:24:39;;;;;;;52.03;24.33;;;;;;;;;;6265741;28;20070;-53
2023/04/17 06:27:39;;;;;;;50.05;23.65;;;;;;;;;;6290392;28;20040;-57
2023/04/17 06:30:40;;;;;;;45.95;22.17;;;;;;;;;;6288590;28;20040;-55
2023/04/17 06:33:40;;;;;;;42.28;22.15;;;;;;;;;;6288887;28;20048;-52
2023/04/17 06:36:41;;;;;;;45.92;23.10;;;;;;;;;;6289340;28;20045;-49
2023/04/17 06:39:42;;;;;;;45.80;22.83;;;;;;;;;;6291975;28;20045;-52
2023/04/17 06:42:42;;;;;;;46.58;23.27;;;;;;;;;;6289501;28;20288;-50
2023/04/17 06:45:43;;;;;;;41.08;21.13;;;;;;;;;;6270873;28;20049;-51
2023/04/17 06:48:43;;;;;;;41.13;20.90;;;;;;;;;;6271605;28;20496;-54
2023/04/17 06:51:46;;;;;;;43.78;22.95;;;;;;;;;;6266327;28;20040;-51
2023/04/17 06:54:46;;;;;;;45.60;23.95;;;;;;;;;;6270388;28;20423;-57
2023/04/17 06:57:47;;;;;;;51.30;25.40;;;;;;;;;;6279752;28;20048;-57
2023/04/17 07:00:48;;;;;;;42.45;22.13;;;;;;;;;;6269923;28;20071;-56
2023/04/17 07:03:48;;;;;;;52.10;26.20;;;;;;;;;;6268803;28;20053;-55
2023/04/17 07:06:49;;;;;;;47.60;24.67;;;;;;;;;;6269306;28;20053;-53
2023/04/17 07:09:50;;;;;;;45.08;22.73;;;;;;;;;;6271339;28;20524;-52
2023/04/17 07:12:50;;;;;;;47.97;23.48;;;;;;;;;;6266991;28;20119;-56
2023/04/17 07:15:55;;;;;;;50.22;24.80;;;;;;;;;;6268595;28;20139;-54
2023/04/17 07:18:55;;;;;;;38.58;19.52;;;;;;;;;;6269881;28;20048;-53
2023/04/17 07:21:56;;;;;;;40.80;20.92;;;;;;;;;;6265477;28;20462;-54
2023/04/17 07:24:57;;;;;;;37.60;20.05;;;;;;;;;;6271982;28;20045;-55
2023/04/17 07:27:58;;;;;;;39.13;20.23;;;;;;;;;;6280309;28;20081;-54
2023/04/17 07:30:59;;;;;;;37.40;20.10;;;;;;;;;;6270303;28;20527;-53
2023/04/17 07:34:00;;;;;;;37.42;20.05;;;;;;;;;;6266729;28;20040;-52
2023/04/17 07:37:00;;;;;;;31.90;17.52;;;;;;;;;;6266912;28;20052;-52
2023/04/17 07:40:02;;;;;;;31.50;17.00;;;;;;;;;;6266551;28;20048;-52
2023/04/17 07:43:03;;;;;;;31.60;16.02;;;;;;;;;;6264831;28;20068;-51
2023/04/17 07:46:04;;;;;;;31.45;18.10;;;;;;;;;;6267613;28;20521;-50
2023/04/17 07:49:04;;;;;;;32.20;17.27;;;;;;;;;;6270922;28;20037;-58
2023/04/17 07:52:05;;;;;;;33.75;18.17;;;;;;;;;;6270204;28;20557;-57
2023/04/17 07:55:06;;;;;;;35.13;18.67;;;;;;;;;;6267474;28;20037;-53
2023/04/17 07:58:08;;;;;;;35.15;19.65;;;;;;;;;;6270492;28;20476;-55
2023/04/17 08:01:08;;;;;;;39.20;20.40;;;;;;;;;;6266439;28;20734;-53
2023/04/17 08:04:09;;;;;;;42.78;21.75;;;;;;;;;;6267036;28;20043;-52
2023/04/17 08:07:10;;;;;;;37.58;21.27;;;;;;;;;;6264550;28;20122;-53
2023/04/17 08:10:10;;;;;;;36.35;17.88;;;;;;;;;;6269344;28;20454;-55
2023/04/17 08:13:11;;;;;;;36.92;17.38;;;;;;;;;;6266273;28;20095;-58
2023/04/17 08:16:12;;;;;;;32.47;18.65;;;;;;;;;;6265470;28;20049;-55
2023/04/17 08:19:13;;;;;;;37.85;21.05;;;;;;;;;;6267081;28;20037;-55
2023/04/17 08:22:13;;;;;;;41.05;21.33;;;;;;;;;;6262941;28;20416;-57
2023/04/17 08:25:14;;;;;;;40.33;20.83;;;;;;;;;;6268274;28;20484;-58
2023/04/17 08:28:15;;;;;;;35.47;19.73;;;;;;;;;;6266817;28;20075;-58
2023/04/17 08:31:15;;;;;;;37.70;19.77;;;;;;;;;;6265940;28;20045;-55
2023/04/17 08:34:16;;;;;;;36.53;19.58;;;;;;;;;;6265791;28;20140;-54
2023/04/17 08:37:16;;;;;;;33.38;18.00;;;;;;;;;;6265937;28;20431;-59
2023/04/17 08:40:20;;;;;;;35.13;17.73;;;;;;;;;;6267002;28;20404;-57
2023/04/17 08:43:22;;;;;;;30.85;16.17;;;;;;;;;;6265141;28;20101;-59
2023/04/17 08:46:24;;;;;;;30.92;17.25;;;;;;;;;;6264052;28;20045;-57
2023/04/17 08:49:28;;;;;;;28.23;15.10;;;;;;;;;;6267020;28;20044;-57
2023/04/17 08:52:29;;;;;;;33.60;16.40;;;;;;;;;;6264131;28;20041;-57
2023/04/17 08:55:30;;;;;;;29.75;15.13;;;;;;;;;;6264695;28;20048;-52
2023/04/17 08:58:32;;;;;;;33.63;17.08;;;;;;;;;;6277330;28;20051;-57
2023/04/17 09:01:33;;;;;;;30.75;16.02;;;;;;;;;;6280257;28;20072;-56
2023/04/17 09:04:38;;;;;;;36.33;17.10;;;;;;;;;;6279305;28;20063;-57
2023/04/17 09:07:43;;;;;;;33.65;16.67;;;;;;;;;;6279232;28;20048;-57
2023/04/17 09:10:49;;;;;;;35.55;16.52;;;;;;;;;;6289408;28;20385;-55
2023/04/17 09:13:50;;;;;;;35.78;17.25;;;;;;;;;;6279539;28;20137;-54
2023/04/17 09:16:53;;;;;;;31.80;17.10;;;;;;;;;;6266554;28;20041;-52
2023/04/17 09:20:08;;;;;;;33.05;17.67;;;;;;;;;;6267424;28;20048;-55
2023/04/17 09:23:09;;;;;;;33.78;17.13;;;;;;;;;;6264640;28;20105;-58
2023/04/17 09:26:14;;;;;;;31.25;17.45;;;;;;;;;;6266586;28;20049;-52
2023/04/17 09:29:15;;;;;;;30.65;16.52;;;;;;;;;;6263783;28;20424;-57
2023/04/17 09:32:15;;;;;;;29.15;14.68;;;;;;;;;;6263431;28;20040;-57
2023/04/17 09:35:27;;;;;;;29.60;15.45;;;;;;;;;;6263672;28;20033;-52
2023/04/17 09:38:37;;;;;;;32.53;15.05;;;;;;;;;;6266457;28;20518;-52
2023/04/17 09:41:38;;;;;;;30.40;14.35;;;;;;;;;;6267041;28;20093;-55
2023/04/17 09:44:39;;;;;;;29.17;14.48;;;;;;;;;;6264714;28;20057;-51
2023/04/17 09:47:43;;;;;;;22.87;12.40;;;;;;;;;;6263112;28;20049;-51
2023/04/17 09:50:44;;;;;;;24.65;12.45;;;;;;;;;;6265710;28;20605;-56
2023/04/17 09:53:45;;;;;;;22.20;12.02;;;;;;;;;;6265844;28;20045;-59
2023/04/17 09:56:48;;;;;;;22.45;11.40;;;;;;;;;;6262919;28;20395;-56
2023/04/17 09:59:50;;;;;;;23.23;11.93;;;;;;;;;;6266268;28;20666;-58
2023/04/17 10:02:51;;;;;;;18.77;11.13;;;;;;;;;;6265912;28;20044;-53
2023/04/17 10:05:53;;;;;;;22.58;11.18;;;;;;;;;;6262477;28;21832;-55
2023/04/17 10:08:53;;;;;;;18.55;10.75;;;;;;;;;;6265594;28;20049;-58
2023/04/17 10:11:55;;;;;;;21.27;10.67;;;;;;;;;;6267271;28;20045;-55
2023/04/17 10:14:56;;;;;;;18.50;10.32;;;;;;;;;;6265295;28;20041;-53
2023/04/17 10:18:22;;;;;;;15.80;10.32;;;;;;;;;;6265420;28;20091;-57
2023/04/17 10:21:24;;;;;;;18.92;10.95;;;;;;;;;;6265090;28;20060;-51
2023/04/17 10:24:25;;;;;;;19.05;10.63;;;;;;;;;;6268215;28;20488;-57
2023/04/17 10:27:26;;;;;;;20.90;11.70;;;;;;;;;;6263279;28;20080;-57
2023/04/17 10:30:52;;;;;;;22.08;10.95;;;;;;;;;;6265735;28;20139;-55
2023/04/17 10:33:53;;;;;;;18.35;11.02;;;;;;;;;;6264790;28;20450;-55
2023/04/17 10:36:55;;;;;;;18.75;10.85;;;;;;;;;;6266388;28;20136;-53
2023/04/17 10:40:00;;;;;;;16.38;10.07;;;;;;;;;;6262289;28;20054;-59
2023/04/17 10:43:18;;;;;;;16.83;9.32;;;;;;;;;;6267093;28;20115;-56
2023/04/17 10:46:24;;;;;;;16.10;9.55;;;;;;;;;;6265151;28;20052;-57
2023/04/17 10:49:25;;;;;;;20.52;12.30;;;;;;;;;;6266387;28;20045;-59
2023/04/17 10:52:31;;;;;;;22.45;11.63;;;;;;;;;;6263812;28;20060;-55
2023/04/17 10:55:32;;;;;;;21.15;10.95;;;;;;;;;;6264177;28;20047;-55
2023/04/17 10:58:37;;;;;;;19.17;11.23;;;;;;;;;;6260398;28;20439;-57
2023/04/17 11:01:56;;;;;;;28.83;13.65;;;;;;;;;;6261434;28;20097;-52
2023/04/17 11:05:06;;;;;;;22.60;14.07;;;;;;;;;;6265042;28;20083;-51
2023/04/17 11:08:09;;;;;;;21.75;12.95;;;;;;;;;;6264797;28;20037;-54
2023/04/17 11:11:10;;;;;;;22.55;13.07;;;;;;;;;;6262650;28;20037;-56
2023/04/17 11:14:17;;;;;;;20.83;12.07;;;;;;;;;;6262442;28;20045;-51
2023/04/17 11:17:20;;;;;;;24.50;13.32;;;;;;;;;;6263126;28;20396;-56
2023/04/17 11:20:23;;;;;;;23.23;13.30;;;;;;;;;;6262733;28;20036;-55
2023/04/17 11:23:23;;;;;;;22.73;13.93;;;;;;;;;;6259047;28;20060;-56
2023/04/17 11:26:24;;;;;;;18.60;10.95;;;;;;;;;;6263884;28;20151;-54
2023/04/17 11:29:25;;;;;;;17.60;11.05;;;;;;;;;;6268874;28;20045;-57
2023/04/17 11:32:34;;;;;;;18.35;11.57;;;;;;;;;;6265960;28;20473;-54
2023/04/17 11:35:36;;;;;;;24.60;13.40;;;;;;;;;;6267203;28;20438;-59
2023/04/17 11:38:46;;;;;;;27.40;15.45;;;;;;;;;;6267592;28;20091;-56
2023/04/17 11:41:46;;;;;;;30.83;17.23;;;;;;;;;;6268742;28;20127;-54
2023/04/17 11:44:47;;;;;;;30.65;16.23;;;;;;;;;;6269695;28;20894;-52
2023/04/17 11:47:47;;;;;;;36.50;17.85;;;;;;;;;;6268297;28;20045;-58
2023/04/17 11:51:03;;;;;;;36.50;19.55;;;;;;;;;;6270121;28;20400;-53
2023/04/17 11:54:04;;;;;;;33.17;17.52;;;;;;;;;;6267319;28;20037;-56
2023/04/17 11:57:10;;;;;;;32.85;16.52;;;;;;;;;;6268888;28;20416;-57
2023/04/17 12:00:13;;;;;;;29.17;16.40;;;;;;;;;;6270525;28;20095;-54
2023/04/17 12:03:33;;;;;;;23.25;12.65;;;;;;;;;;6272776;28;20045;-53
2023/04/17 12:06:36;;;;;;;23.70;12.45;;;;;;;;;;6265553;28;20191;-54
2023/04/17 12:09:37;;;;;;;21.77;13.25;;;;;;;;;;6267530;28;20993;-55
2023/04/17 12:12:37;;;;;;;23.08;12.65;;;;;;;;;;6272362;28;20126;-58
2023/04/17 12:15:38;;;;;;;23.88;13.63;;;;;;;;;;6267624;28;20442;-55
2023/04/17 12:18:38;;;;;;;22.30;12.68;;;;;;;;;;6268519;28;20045;-58
2023/04/17 12:21:39;;;;;;;19.85;11.07;;;;;;;;;;6266883;28;20098;-53
2023/04/17 12:24:40;;;;;;;20.25;11.85;;;;;;;;;;6268109;28;20033;-53
2023/04/17 12:27:40;;;;;;;21.88;12.23;;;;;;;;;;6264282;28;20044;-55
2023/04/17 12:30:41;;;;;;;20.95;12.43;;;;;;;;;;6264938;28;20392;-55
2023/04/17 12:33:42;;;;;;;28.23;13.50;;;;;;;;;;6267272;28;20052;-55
2023/04/17 12:36:42;;;;;;;34.05;15.52;;;;;;;;;;6262707;28;20045;-57
2023/04/17 12:39:43;;;;;;;31.42;15.52;;;;;;;;;;6268350;28;20080;-51
2023/04/17 12:42:44;;;;;;;38.40;18.30;;;;;;;;;;6267663;28;20048;-57
2023/04/17 12:45:45;;;;;;;41.47;19.85;;;;;;;;;;6269486;28;20048;-53
2023/04/17 12:48:45;;;;;;;39.13;18.70;;;;;;;;;;6268914;28;20048;-54
2023/04/17 12:51:46;;;;;;;36.58;17.75;;;;;;;;;;6269483;28;20052;-54
2023/04/17 12:54:46;;;;;;;36.00;17.10;;;;;;;;;;6265391;28;20049;-55
2023/04/17 12:57:47;;;;;;;33.75;17.50;;;;;;;;;;6266978;28;20037;-54
2023/04/17 13:00:48;;;;;;;35.85;17.23;;;;;;;;;;6265138;28;20059;-55
2023/04/17 13:03:49;;;;;;;38.50;16.83;;;;;;;;;;6266523;28;20044;-52
2023/04/17 13:06:50;;;;;;;36.20;16.85;;;;;;;;;;6264562;28;20045;-56
2023/04/17 13:09:51;;;;;;;39.50;18.08;;;;;;;;;;6265480;28;20056;-57
2023/04/17 13:12:51;;;;;;;40.60;20.27;;;;;;;;;;6266522;28;20060;-56
2023/04/17 13:15:52;;;;;;;37.80;19.48;;;;;;;;;;6266753;28;20044;-54
2023/04/17 13:18:52;;;;;;;44.03;20.45;;;;;;;;;;6269136;28;20045;-56
2023/04/17 13:21:53;;;;;;;38.65;16.52;;;;;;;;;;6266421;28;20140;-54
2023/04/17 13:24:53;;;;;;;31.52;16.13;;;;;;;;;;6269794;28;20053;-52
2023/04/17 13:27:54;;;;;;;38.70;20.45;;;;;;;;;;6262539;28;20652;-55
2023/04/17 13:30:55;;;;;;;23.45;13.73;;;;;;;;;;6266750;28;20063;-55
2023/04/17 13:33:55;;;;;;;24.13;13.63;;;;;;;;;;6267661;28;20052;-53
2023/04/17 13:36:56;;;;;;;23.75;13.68;;;;;;;;;;6266645;28;20059;-53
2023/04/17 13:39:58;;;;;;;24.75;13.02;;;;;;;;;;6264494;28;20049;-57
2023/04/17 13:42:59;;;;;;;22.73;13.95;;;;;;;;;;6266336;28;20048;-53
2023/04/17 13:46:00;;;;;;;19.85;11.43;;;;;;;;;;6266620;28;20065;-58
2023/04/17 13:49:00;;;;;;;18.85;9.35;;;;;;;;;;6264068;28;20044;-58
2023/04/17 13:52:02;;;;;;;16.77;10.55;;;;;;;;;;6263774;28;20048;-57
2023/04/17 13:55:02;;;;;;;18.43;9.37;;;;;;;;;;6264887;28;20078;-57
2023/04/17 13:58:03;;;;;;;18.30;9.68;;;;;;;;;;6262606;28;20072;-55
2023/04/17 14:01:04;;;;;;;19.63;10.40;;;;;;;;;;6264450;28;20048;-55
2023/04/17 14:04:04;;;;;;;19.63;10.40;;;;;;;;;;6265345;28;20068;-56
2023/04/17 14:07:05;;;;;;;23.58;12.85;;;;;;;;;;6265167;28;20052;-51
2023/04/17 14:10:06;;;;;;;23.88;13.65;;;;;;;;;;6267276;28;20048;-56
2023/04/17 14:13:08;;;;;;;27.55;15.18;;;;;;;;;;6267901;28;20134;-55
2023/04/17 14:16:09;;;;;;;26.90;14.23;;;;;;;;;;6265032;28;20093;-57
2023/04/17 14:19:11;;;;;;;26.02;14.73;;;;;;;;;;6268361;28;20048;-55
2023/04/17 14:22:12;;;;;;;27.80;14.32;;;;;;;;;;6269559;28;20049;-57
2023/04/17 14:25:13;;;;;;;26.52;14.38;;;;;;;;;;6267715;28;20044;-57
2023/04/17 14:28:14;;;;;;;26.73;13.90;;;;;;;;;;6266379;28;20448;-57
2023/04/17 14:31:14;;;;;;;24.00;14.00;;;;;;;;;;6267595;28;20057;-58
2023/04/17 14:34:15;;;;;;;26.00;13.57;;;;;;;;;;6268898;28;20056;-51
2023/04/17 14:37:15;;;;;;;29.90;15.35;;;;;;;;;;6267815;28;20044;-56
2023/04/17 14:40:16;;;;;;;26.80;14.40;;;;;;;;;;6269309;28;20049;-54
2023/04/17 14:43:17;;;;;;;30.13;15.40;;;;;;;;;;6267956;28;20557;-70
2023/04/17 14:46:17;;;;;;;30.83;16.92;;;;;;;;;;6275035;28;20052;-54
2023/04/17 14:49:19;;;;;;;32.72;17.17;;;;;;;;;;6280099;28;20098;-50
2023/04/17 14:52:20;;;;;;;29.70;14.50;;;;;;;;;;6276334;28;20048;-56
2023/04/17 14:55:23;;;;;;;30.90;14.32;;;;;;;;;;6279486;28;21213;-56
2023/04/17 14:58:24;;;;;;;27.55;15.10;;;;;;;;;;6279520;28;20048;-58
2023/04/17 15:01:25;;;;;;;30.20;14.38;;;;;;;;;;6282489;28;20435;-51
2023/04/17 15:04:25;;;;;;;27.20;14.95;;;;;;;;;;6283091;28;20099;-55
2023/04/17 15:07:26;;;;;;;27.33;14.80;;;;;;;;;;6283351;28;20056;-51
2023/04/17 15:10:27;;;;;;;31.83;15.77;;;;;;;;;;6284011;28;20060;-54
2023/04/17 15:13:27;;;;;;;34.05;16.67;;;;;;;;;;6284564;28;20048;-53
2023/04/17 15:16:29;;;;;;;30.27;15.40;;;;;;;;;;6281561;28;20979;-57
2023/04/17 15:19:29;;;;;;;31.40;16.50;;;;;;;;;;6283997;28;20052;-57
2023/04/17 15:22:31;;;;;;;27.77;15.73;;;;;;;;;;6281874;28;20045;-53
2023/04/17 15:25:31;;;;;;;29.92;15.70;;;;;;;;;;6283745;28;20051;-57
2023/04/17 15:28:32;;;;;;;32.75;16.15;;;;;;;;;;6284274;28;20040;-55
2023/04/17 15:31:33;;;;;;;32.65;16.05;;;;;;;;;;6282808;28;20547;-52
2023/04/17 15:34:34;;;;;;;33.85;16.52;;;;;;;;;;6284247;28;20041;-51
2023/04/17 15:37:37;;;;;;;33.40;15.88;;;;;;;;;;6282510;28;20082;-58
2023/04/17 15:40:37;;;;;;;33.50;17.08;;;;;;;;;;6282365;28;20140;-56
2023/04/17 15:43:38;;;;;;;30.48;16.50;;;;;;;;;;6284073;28;20049;-57
2023/04/17 15:46:39;;;;;;;30.65;15.18;;;;;;;;;;6283017;28;20094;-59
2023/04/17 15:49:39;;;;;;;35.70;18.45;;;;;;;;;;6283149;28;20052;-59
2023/04/17 15:52:40;;;;;;;30.45;14.63;;;;;;;;;;6282111;28;20136;-54
2023/04/17 15:55:40;;;;;;;32.47;15.55;;;;;;;;;;6281604;28;20380;-55
2023/04/17 15:58:41;;;;;;;42.85;22.70;;;;;;;;;;6283051;28;20570;-53
2023/04/17 16:01:42;;;;;;;58.70;30.95;;;;;;;;;;6282151;28;20051;-58
2023/04/17 16:04:43;;;;;;;29.73;15.47;;;;;;;;;;6283507;28;21195;-56
2023/04/17 16:07:44;;;;;;;28.95;13.90;;;;;;;;;;6282507;28;20044;-57
2023/04/17 16:10:45;;;;;;;26.92;14.25;;;;;;;;;;6281836;28;20044;-53
2023/04/17 16:13:45;;;;;;;27.17;13.65;;;;;;;;;;6282015;28;20423;-58
2023/04/17 16:16:46;;;;;;;25.70;13.35;;;;;;;;;;6280528;28;20094;-58
2023/04/17 16:19:46;;;;;;;27.98;13.50;;;;;;;;;;6280543;28;20103;-59
2023/04/17 16:22:47;;;;;;;24.90;13.60;;;;;;;;;;6281613;28;20045;-58
2023/04/17 16:25:49;;;;;;;26.23;13.35;;;;;;;;;;6286659;28;20049;-55
2023/04/17 16:28:50;;;;;;;33.05;16.35;;;;;;;;;;6287374;28;20048;-57
2023/04/17 16:31:51;;;;;;;30.40;16.23;;;;;;;;;;6281695;28;20047;-54
2023/04/17 16:34:52;;;;;;;32.28;15.23;;;;;;;;;;6288375;28;20162;-57
2023/04/17 16:37:53;;;;;;;27.85;14.32;;;;;;;;;;6283494;28;20044;-55
2023/04/17 16:40:55;;;;;;;24.67;13.45;;;;;;;;;;6287929;28;20170;-56
2023/04/17 16:43:56;;;;;;;26.25;13.85;;;;;;;;;;6281856;28;20041;-59
2023/04/17 16:46:57;;;;;;;25.35;14.10;;;;;;;;;;6284087;28;20183;-59
2023/04/17 16:49:57;;;;;;;33.85;16.88;;;;;;;;;;6283722;28;20049;-55
2023/04/17 16:52:58;;;;;;;38.08;20.40;;;;;;;;;;6285229;28;20076;-59
2023/04/17 16:55:59;;;;;;;35.20;16.95;;;;;;;;;;6284078;28;20126;-57
2023/04/17 16:58:59;;;;;;;34.20;16.65;;;;;;;;;;6289849;28;20481;-57
2023/04/17 17:02:00;;;;;;;37.63;18.90;;;;;;;;;;6284735;28;20040;-59
2023/04/17 17:05:01;;;;;;;39.08;18.85;;;;;;;;;;6284472;28;20392;-55
2023/04/17 17:08:02;;;;;;;31.92;17.23;;;;;;;;;;6285792;28;20475;-59
2023/04/17 17:11:03;;;;;;;36.10;17.73;;;;;;;;;;6284561;28;20075;-53
2023/04/17 17:14:04;;;;;;;32.35;17.02;;;;;;;;;;6281431;28;20037;-59
2023/04/17 17:17:05;;;;;;;33.50;18.05;;;;;;;;;;6289239;28;20051;-53
2023/04/17 17:20:06;;;;;;;34.45;18.17;;;;;;;;;;6284624;28;20075;-57
2023/04/17 17:23:07;;;;;;;33.35;16.80;;;;;;;;;;6280384;28;20053;-54
2023/04/17 17:26:07;;;;;;;24.75;13.70;;;;;;;;;;6284509;28;20062;-55
2023/04/17 17:29:08;;;;;;;23.88;13.63;;;;;;;;;;6288980;28;20335;-55
2023/04/17 17:32:09;;;;;;;25.15;13.52;;;;;;;;;;6286932;28;20044;-52
2023/04/17 17:35:10;;;;;;;27.08;14.40;;;;;;;;;;6298517;28;20082;-51